sensor_id;sensor_type;location;lat;lon;timestamp;P1;durP1;ratioP1;P2;durP2;ratioP2
45420;SDS011;55462;47.042;8.292;2023-03-23T00:02:11;1.90;;;1.70;;
45420;SDS011;55462;47.042;8.292;2023-03-23T00:04:36;1.90;;;1.80;;
45420;SDS011;55462;47.042;8.292;2023-03-23T00:07:01;2.78;;;1.95;;
45420;SDS011;55462;47.042;8.292;2023-03-23T00:09:28;3.28;;;2.08;;
45420;SDS011;55462;47.042;8.292;2023-03-23T00:11:56;2.58;;;1.90;;
45420;SDS011;55462;47.042;8.292;2023-03-23T00:14:29;2.30;;;1.80;;
45420;SDS011;55462;47.042;8.292;2023-03-23T00:17:05;2.00;;;1.83;;
45420;SDS011;55462;47.042;8.292;2023-03-23T00:19:31;2.33;;;1.85;;
45420;SDS011;55462;47.042;8.292;2023-03-23T00:21:57;2.85;;;2.00;;
45420;SDS011;55462;47.042;8.292;2023-03-23T00:24:25;2.88;;;1.95;;
45420;SDS011;55462;47.042;8.292;2023-03-23T00:26:51;2.75;;;2.00;;
45420;SDS011;55462;47.042;8.292;2023-03-23T00:29:19;1.83;;;1.73;;
45420;SDS011;55462;47.042;8.292;2023-03-23T00:31:48;2.38;;;1.73;;
45420;SDS011;55462;47.042;8.292;2023-03-23T00:34:21;2.15;;;2.00;;
45420;SDS011;55462;47.042;8.292;2023-03-23T00:36:48;2.47;;;2.00;;
45420;SDS011;55462;47.042;8.292;2023-03-23T00:39:14;2.38;;;2.17;;
45420;SDS011;55462;47.042;8.292;2023-03-23T00:41:43;1.92;;;1.70;;
45420;SDS011;55462;47.042;8.292;2023-03-23T00:44:09;3.40;;;2.05;;
45420;SDS011;55462;47.042;8.292;2023-03-23T00:46:34;3.78;;;1.63;;
45420;SDS011;55462;47.042;8.292;2023-03-23T00:49:11;2.22;;;1.70;;
45420;SDS011;55462;47.042;8.292;2023-03-23T00:51:37;2.10;;;1.92;;
45420;SDS011;55462;47.042;8.292;2023-03-23T00:54:03;1.92;;;1.55;;
45420;SDS011;55462;47.042;8.292;2023-03-23T00:56:28;4.63;;;2.00;;
45420;SDS011;55462;47.042;8.292;2023-03-23T00:58:54;3.75;;;1.50;;
45420;SDS011;55462;47.042;8.292;2023-03-23T01:01:19;1.45;;;1.35;;
45420;SDS011;55462;47.042;8.292;2023-03-23T01:03:45;1.58;;;1.27;;
45420;SDS011;55462;47.042;8.292;2023-03-23T01:06:10;3.33;;;1.20;;
45420;SDS011;55462;47.042;8.292;2023-03-23T01:08:39;1.65;;;1.55;;
45420;SDS011;55462;47.042;8.292;2023-03-23T01:11:10;2.05;;;1.75;;
45420;SDS011;55462;47.042;8.292;2023-03-23T01:13:38;1.60;;;1.50;;
45420;SDS011;55462;47.042;8.292;2023-03-23T01:16:03;2.17;;;1.50;;
45420;SDS011;55462;47.042;8.292;2023-03-23T01:18:29;2.20;;;1.40;;
45420;SDS011;55462;47.042;8.292;2023-03-23T01:20:54;1.10;;;1.08;;
45420;SDS011;55462;47.042;8.292;2023-03-23T01:23:19;1.90;;;1.58;;
45420;SDS011;55462;47.042;8.292;2023-03-23T01:25:45;1.83;;;1.70;;
45420;SDS011;55462;47.042;8.292;2023-03-23T01:28:10;1.50;;;1.00;;
45420;SDS011;55462;47.042;8.292;2023-03-23T01:30:36;2.15;;;1.80;;
45420;SDS011;55462;47.042;8.292;2023-03-23T01:33:02;2.53;;;1.70;;
45420;SDS011;55462;47.042;8.292;2023-03-23T01:35:27;5.13;;;1.80;;
45420;SDS011;55462;47.042;8.292;2023-03-23T01:37:53;2.40;;;1.75;;
45420;SDS011;55462;47.042;8.292;2023-03-23T01:40:19;1.83;;;1.70;;
45420;SDS011;55462;47.042;8.292;2023-03-23T01:42:44;3.42;;;1.80;;
45420;SDS011;55462;47.042;8.292;2023-03-23T01:48:07;1.77;;;1.50;;
45420;SDS011;55462;47.042;8.292;2023-03-23T01:50:43;2.10;;;1.80;;
45420;SDS011;55462;47.042;8.292;2023-03-23T01:53:14;2.00;;;1.90;;
45420;SDS011;55462;47.042;8.292;2023-03-23T01:55:40;2.33;;;1.92;;
45420;SDS011;55462;47.042;8.292;2023-03-23T01:58:06;2.40;;;2.15;;
45420;SDS011;55462;47.042;8.292;2023-03-23T02:00:32;2.30;;;2.10;;
45420;SDS011;55462;47.042;8.292;2023-03-23T02:02:58;3.40;;;1.73;;
45420;SDS011;55462;47.042;8.292;2023-03-23T02:05:24;2.40;;;1.83;;
45420;SDS011;55462;47.042;8.292;2023-03-23T02:07:53;1.85;;;1.70;;
45420;SDS011;55462;47.042;8.292;2023-03-23T02:10:19;1.65;;;1.55;;
45420;SDS011;55462;47.042;8.292;2023-03-23T02:12:44;2.95;;;1.70;;
45420;SDS011;55462;47.042;8.292;2023-03-23T02:15:10;2.25;;;1.70;;
45420;SDS011;55462;47.042;8.292;2023-03-23T02:17:38;2.25;;;1.50;;
45420;SDS011;55462;47.042;8.292;2023-03-23T02:34:33;1.75;;;1.60;;
45420;SDS011;55462;47.042;8.292;2023-03-23T02:37:27;2.15;;;2.00;;
45420;SDS011;55462;47.042;8.292;2023-03-23T02:39:57;2.10;;;2.00;;
45420;SDS011;55462;47.042;8.292;2023-03-23T02:42:37;2.05;;;1.58;;
45420;SDS011;55462;47.042;8.292;2023-03-23T02:45:05;2.75;;;1.90;;
45420;SDS011;55462;47.042;8.292;2023-03-23T02:47:32;4.40;;;1.77;;
45420;SDS011;55462;47.042;8.292;2023-03-23T02:50:00;1.88;;;1.77;;
45420;SDS011;55462;47.042;8.292;2023-03-23T02:52:26;3.90;;;1.80;;
45420;SDS011;55462;47.042;8.292;2023-03-23T02:54:53;1.90;;;1.80;;
45420;SDS011;55462;47.042;8.292;2023-03-23T02:57:19;2.67;;;2.00;;
45420;SDS011;55462;47.042;8.292;2023-03-23T02:59:45;5.60;;;1.67;;
45420;SDS011;55462;47.042;8.292;2023-03-23T03:02:17;2.00;;;1.75;;
45420;SDS011;55462;47.042;8.292;2023-03-23T03:10:37;1.70;;;1.60;;
45420;SDS011;55462;47.042;8.292;2023-03-23T03:13:44;1.70;;;1.60;;
45420;SDS011;55462;47.042;8.292;2023-03-23T03:16:22;2.88;;;1.60;;
45420;SDS011;55462;47.042;8.292;2023-03-23T03:21:26;1.60;;;1.50;;
45420;SDS011;55462;47.042;8.292;2023-03-23T03:23:54;3.10;;;1.92;;
45420;SDS011;55462;47.042;8.292;2023-03-23T03:26:21;1.58;;;1.48;;
45420;SDS011;55462;47.042;8.292;2023-03-23T03:28:51;1.55;;;1.45;;
45420;SDS011;55462;47.042;8.292;2023-03-23T03:31:19;2.25;;;1.75;;
45420;SDS011;55462;47.042;8.292;2023-03-23T03:33:46;1.55;;;1.38;;
45420;SDS011;55462;47.042;8.292;2023-03-23T03:36:16;1.85;;;1.75;;
45420;SDS011;55462;47.042;8.292;2023-03-23T03:38:44;2.60;;;1.73;;
45420;SDS011;55462;47.042;8.292;2023-03-23T03:41:13;1.80;;;1.70;;
45420;SDS011;55462;47.042;8.292;2023-03-23T03:43:38;2.13;;;1.70;;
45420;SDS011;55462;47.042;8.292;2023-03-23T03:46:04;1.70;;;1.60;;
45420;SDS011;55462;47.042;8.292;2023-03-23T03:48:29;2.05;;;1.80;;
45420;SDS011;55462;47.042;8.292;2023-03-23T03:50:54;2.60;;;1.73;;
45420;SDS011;55462;47.042;8.292;2023-03-23T03:53:21;3.60;;;1.63;;
45420;SDS011;55462;47.042;8.292;2023-03-23T03:55:48;1.88;;;1.77;;
45420;SDS011;55462;47.042;8.292;2023-03-23T03:58:14;1.98;;;1.80;;
45420;SDS011;55462;47.042;8.292;2023-03-23T04:00:40;2.05;;;1.40;;
45420;SDS011;55462;47.042;8.292;2023-03-23T04:03:07;1.67;;;1.58;;
45420;SDS011;55462;47.042;8.292;2023-03-23T04:05:34;1.95;;;1.73;;
45420;SDS011;55462;47.042;8.292;2023-03-23T04:08:01;1.95;;;1.70;;
45420;SDS011;55462;47.042;8.292;2023-03-23T04:10:27;1.95;;;1.80;;
45420;SDS011;55462;47.042;8.292;2023-03-23T04:12:54;3.50;;;2.10;;
45420;SDS011;55462;47.042;8.292;2023-03-23T04:15:19;1.77;;;1.67;;
45420;SDS011;55462;47.042;8.292;2023-03-23T04:17:45;2.03;;;1.42;;
45420;SDS011;55462;47.042;8.292;2023-03-23T04:20:11;2.05;;;1.60;;
45420;SDS011;55462;47.042;8.292;2023-03-23T04:22:46;1.88;;;1.77;;
45420;SDS011;55462;47.042;8.292;2023-03-23T04:25:14;3.70;;;1.60;;
45420;SDS011;55462;47.042;8.292;2023-03-23T04:27:42;1.70;;;1.60;;
45420;SDS011;55462;47.042;8.292;2023-03-23T04:30:08;1.63;;;1.52;;
45420;SDS011;55462;47.042;8.292;2023-03-23T04:32:36;2.13;;;1.50;;
45420;SDS011;55462;47.042;8.292;2023-03-23T04:35:06;1.92;;;1.80;;
45420;SDS011;55462;47.042;8.292;2023-03-23T04:37:33;1.90;;;1.80;;
45420;SDS011;55462;47.042;8.292;2023-03-23T04:39:58;4.47;;;1.70;;
45420;SDS011;55462;47.042;8.292;2023-03-23T04:42:31;1.77;;;1.67;;
45420;SDS011;55462;47.042;8.292;2023-03-23T04:44:56;1.70;;;1.60;;
45420;SDS011;55462;47.042;8.292;2023-03-23T04:47:23;2.85;;;1.63;;
45420;SDS011;55462;47.042;8.292;2023-03-23T04:49:49;2.28;;;1.70;;
45420;SDS011;55462;47.042;8.292;2023-03-23T04:52:15;1.98;;;1.70;;
45420;SDS011;55462;47.042;8.292;2023-03-23T04:54:41;1.98;;;1.75;;
45420;SDS011;55462;47.042;8.292;2023-03-23T04:57:06;2.00;;;1.90;;
45420;SDS011;55462;47.042;8.292;2023-03-23T04:59:33;1.95;;;1.70;;
45420;SDS011;55462;47.042;8.292;2023-03-23T05:01:58;1.98;;;1.55;;
45420;SDS011;55462;47.042;8.292;2023-03-23T05:04:24;2.10;;;1.90;;
45420;SDS011;55462;47.042;8.292;2023-03-23T05:06:50;1.70;;;1.60;;
45420;SDS011;55462;47.042;8.292;2023-03-23T05:09:16;1.58;;;1.48;;
45420;SDS011;55462;47.042;8.292;2023-03-23T05:11:41;5.22;;;1.60;;
45420;SDS011;55462;47.042;8.292;2023-03-23T05:14:06;2.42;;;1.80;;
45420;SDS011;55462;47.042;8.292;2023-03-23T05:16:32;3.15;;;1.63;;
45420;SDS011;55462;47.042;8.292;2023-03-23T05:18:57;4.07;;;1.73;;
45420;SDS011;55462;47.042;8.292;2023-03-23T05:21:23;1.55;;;1.45;;
45420;SDS011;55462;47.042;8.292;2023-03-23T05:23:48;3.50;;;2.13;;
45420;SDS011;55462;47.042;8.292;2023-03-23T05:26:22;2.17;;;1.98;;
45420;SDS011;55462;47.042;8.292;2023-03-23T05:28:53;1.60;;;1.50;;
45420;SDS011;55462;47.042;8.292;2023-03-23T05:31:19;1.42;;;1.42;;
45420;SDS011;55462;47.042;8.292;2023-03-23T05:33:44;1.48;;;1.38;;
45420;SDS011;55462;47.042;8.292;2023-03-23T05:36:10;1.80;;;1.70;;
45420;SDS011;55462;47.042;8.292;2023-03-23T05:38:38;1.50;;;1.40;;
45420;SDS011;55462;47.042;8.292;2023-03-23T05:41:07;2.25;;;1.92;;
45420;SDS011;55462;47.042;8.292;2023-03-23T05:43:33;1.48;;;1.38;;
45420;SDS011;55462;47.042;8.292;2023-03-23T05:45:58;2.95;;;1.40;;
45420;SDS011;55462;47.042;8.292;2023-03-23T05:48:24;1.80;;;1.70;;
45420;SDS011;55462;47.042;8.292;2023-03-23T05:50:49;1.67;;;1.33;;
45420;SDS011;55462;47.042;8.292;2023-03-23T05:53:15;1.70;;;1.60;;
45420;SDS011;55462;47.042;8.292;2023-03-23T05:55:41;3.88;;;1.40;;
45420;SDS011;55462;47.042;8.292;2023-03-23T05:58:06;4.28;;;2.13;;
45420;SDS011;55462;47.042;8.292;2023-03-23T06:00:31;3.17;;;1.92;;
45420;SDS011;55462;47.042;8.292;2023-03-23T06:02:57;4.57;;;2.20;;
45420;SDS011;55462;47.042;8.292;2023-03-23T06:05:23;2.83;;;1.75;;
45420;SDS011;55462;47.042;8.292;2023-03-23T06:07:50;5.07;;;1.85;;
45420;SDS011;55462;47.042;8.292;2023-03-23T06:10:16;3.25;;;1.63;;
45420;SDS011;55462;47.042;8.292;2023-03-23T06:12:41;3.60;;;1.70;;
45420;SDS011;55462;47.042;8.292;2023-03-23T06:15:08;1.70;;;1.42;;
45420;SDS011;55462;47.042;8.292;2023-03-23T06:17:34;2.28;;;1.77;;
45420;SDS011;55462;47.042;8.292;2023-03-23T06:20:01;1.95;;;1.70;;
45420;SDS011;55462;47.042;8.292;2023-03-23T06:22:29;3.72;;;1.73;;
45420;SDS011;55462;47.042;8.292;2023-03-23T06:24:54;2.63;;;1.88;;
45420;SDS011;55462;47.042;8.292;2023-03-23T06:27:22;2.35;;;1.75;;
45420;SDS011;55462;47.042;8.292;2023-03-23T06:29:47;2.13;;;1.92;;
45420;SDS011;55462;47.042;8.292;2023-03-23T06:32:13;2.05;;;1.95;;
45420;SDS011;55462;47.042;8.292;2023-03-23T06:34:40;2.28;;;1.65;;
45420;SDS011;55462;47.042;8.292;2023-03-23T06:37:08;3.42;;;1.77;;
45420;SDS011;55462;47.042;8.292;2023-03-23T06:39:34;1.65;;;1.50;;
45420;SDS011;55462;47.042;8.292;2023-03-23T06:41:59;2.50;;;2.10;;
45420;SDS011;55462;47.042;8.292;2023-03-23T06:44:25;2.00;;;1.90;;
45420;SDS011;55462;47.042;8.292;2023-03-23T06:46:50;2.38;;;1.67;;
45420;SDS011;55462;47.042;8.292;2023-03-23T06:49:16;4.03;;;1.70;;
45420;SDS011;55462;47.042;8.292;2023-03-23T06:51:41;1.90;;;1.80;;
45420;SDS011;55462;47.042;8.292;2023-03-23T06:54:06;2.33;;;1.80;;
45420;SDS011;55462;47.042;8.292;2023-03-23T06:56:32;1.85;;;1.73;;
45420;SDS011;55462;47.042;8.292;2023-03-23T06:58:57;2.30;;;2.10;;
45420;SDS011;55462;47.042;8.292;2023-03-23T07:01:22;5.22;;;2.33;;
45420;SDS011;55462;47.042;8.292;2023-03-23T07:03:48;2.72;;;2.28;;
45420;SDS011;55462;47.042;8.292;2023-03-23T07:06:14;2.00;;;1.90;;
45420;SDS011;55462;47.042;8.292;2023-03-23T07:08:40;1.90;;;1.70;;
45420;SDS011;55462;47.042;8.292;2023-03-23T07:11:05;2.20;;;1.80;;
45420;SDS011;55462;47.042;8.292;2023-03-23T07:13:31;2.22;;;2.03;;
45420;SDS011;55462;47.042;8.292;2023-03-23T07:15:57;5.72;;;2.10;;
45420;SDS011;55462;47.042;8.292;2023-03-23T07:18:22;2.00;;;1.77;;
45420;SDS011;55462;47.042;8.292;2023-03-23T07:20:49;2.63;;;2.10;;
45420;SDS011;55462;47.042;8.292;2023-03-23T07:23:15;3.20;;;2.22;;
45420;SDS011;55462;47.042;8.292;2023-03-23T07:25:41;1.88;;;1.77;;
45420;SDS011;55462;47.042;8.292;2023-03-23T07:28:07;2.88;;;2.10;;
45420;SDS011;55462;47.042;8.292;2023-03-23T07:30:33;4.90;;;1.80;;
45420;SDS011;55462;47.042;8.292;2023-03-23T07:32:59;2.95;;;2.00;;
45420;SDS011;55462;47.042;8.292;2023-03-23T07:35:24;5.47;;;2.58;;
45420;SDS011;55462;47.042;8.292;2023-03-23T07:37:50;2.45;;;2.25;;
45420;SDS011;55462;47.042;8.292;2023-03-23T07:40:17;3.97;;;2.17;;
45420;SDS011;55462;47.042;8.292;2023-03-23T07:42:43;4.10;;;2.40;;
45420;SDS011;55462;47.042;8.292;2023-03-23T07:45:10;4.43;;;2.90;;
45420;SDS011;55462;47.042;8.292;2023-03-23T07:47:36;9.55;;;3.53;;
45420;SDS011;55462;47.042;8.292;2023-03-23T07:50:02;4.88;;;2.78;;
45420;SDS011;55462;47.042;8.292;2023-03-23T07:52:28;4.50;;;3.00;;
45420;SDS011;55462;47.042;8.292;2023-03-23T07:54:55;4.68;;;2.53;;
45420;SDS011;55462;47.042;8.292;2023-03-23T07:57:20;10.85;;;2.70;;
45420;SDS011;55462;47.042;8.292;2023-03-23T07:59:45;3.83;;;3.10;;
45420;SDS011;55462;47.042;8.292;2023-03-23T08:02:11;4.88;;;2.70;;
45420;SDS011;55462;47.042;8.292;2023-03-23T08:04:36;5.03;;;3.03;;
45420;SDS011;55462;47.042;8.292;2023-03-23T08:07:02;3.53;;;2.88;;
45420;SDS011;55462;47.042;8.292;2023-03-23T08:09:29;3.42;;;2.65;;
45420;SDS011;55462;47.042;8.292;2023-03-23T08:11:54;3.10;;;2.78;;
45420;SDS011;55462;47.042;8.292;2023-03-23T08:14:20;4.38;;;2.40;;
45420;SDS011;55462;47.042;8.292;2023-03-23T08:16:46;4.93;;;2.75;;
45420;SDS011;55462;47.042;8.292;2023-03-23T08:19:11;5.60;;;3.15;;
45420;SDS011;55462;47.042;8.292;2023-03-23T08:21:37;7.68;;;3.00;;
45420;SDS011;55462;47.042;8.292;2023-03-23T08:24:02;5.68;;;2.75;;
45420;SDS011;55462;47.042;8.292;2023-03-23T08:26:28;6.85;;;3.17;;
45420;SDS011;55462;47.042;8.292;2023-03-23T08:28:53;3.83;;;2.88;;
45420;SDS011;55462;47.042;8.292;2023-03-23T08:31:18;3.80;;;3.22;;
45420;SDS011;55462;47.042;8.292;2023-03-23T08:33:44;5.50;;;2.80;;
45420;SDS011;55462;47.042;8.292;2023-03-23T08:36:09;3.63;;;2.80;;
45420;SDS011;55462;47.042;8.292;2023-03-23T08:38:35;3.92;;;2.60;;
45420;SDS011;55462;47.042;8.292;2023-03-23T08:41:02;5.57;;;2.67;;
45420;SDS011;55462;47.042;8.292;2023-03-23T08:43:29;2.92;;;2.55;;
45420;SDS011;55462;47.042;8.292;2023-03-23T08:45:55;9.07;;;3.00;;
45420;SDS011;55462;47.042;8.292;2023-03-23T08:48:21;4.82;;;2.97;;
45420;SDS011;55462;47.042;8.292;2023-03-23T08:50:47;5.13;;;2.67;;
45420;SDS011;55462;47.042;8.292;2023-03-23T08:53:13;5.93;;;3.17;;
45420;SDS011;55462;47.042;8.292;2023-03-23T08:55:38;14.98;;;3.72;;
45420;SDS011;55462;47.042;8.292;2023-03-23T08:58:04;12.15;;;3.35;;
45420;SDS011;55462;47.042;8.292;2023-03-23T09:00:30;8.73;;;2.90;;
45420;SDS011;55462;47.042;8.292;2023-03-23T09:02:55;5.78;;;3.10;;
45420;SDS011;55462;47.042;8.292;2023-03-23T09:05:22;8.02;;;3.00;;
45420;SDS011;55462;47.042;8.292;2023-03-23T09:07:52;2.97;;;2.60;;
45420;SDS011;55462;47.042;8.292;2023-03-23T09:10:19;7.22;;;2.97;;
45420;SDS011;55462;47.042;8.292;2023-03-23T09:12:45;4.85;;;2.50;;
45420;SDS011;55462;47.042;8.292;2023-03-23T09:15:11;7.88;;;2.72;;
45420;SDS011;55462;47.042;8.292;2023-03-23T09:17:40;5.55;;;2.40;;
45420;SDS011;55462;47.042;8.292;2023-03-23T09:20:07;7.38;;;3.05;;
45420;SDS011;55462;47.042;8.292;2023-03-23T09:22:44;5.47;;;3.10;;
45420;SDS011;55462;47.042;8.292;2023-03-23T09:25:12;5.53;;;2.40;;
45420;SDS011;55462;47.042;8.292;2023-03-23T09:27:39;6.68;;;2.58;;
45420;SDS011;55462;47.042;8.292;2023-03-23T09:30:06;6.55;;;2.35;;
45420;SDS011;55462;47.042;8.292;2023-03-23T09:32:33;4.70;;;2.53;;
45420;SDS011;55462;47.042;8.292;2023-03-23T09:35:00;5.20;;;2.40;;
45420;SDS011;55462;47.042;8.292;2023-03-23T09:37:25;3.22;;;2.33;;
45420;SDS011;55462;47.042;8.292;2023-03-23T09:39:51;7.15;;;2.72;;
45420;SDS011;55462;47.042;8.292;2023-03-23T09:47:45;2.78;;;2.50;;
45420;SDS011;55462;47.042;8.292;2023-03-23T09:50:19;3.90;;;2.25;;
45420;SDS011;55462;47.042;8.292;2023-03-23T09:52:58;2.78;;;2.05;;
45420;SDS011;55462;47.042;8.292;2023-03-23T09:55:26;4.07;;;2.70;;
45420;SDS011;55462;47.042;8.292;2023-03-23T10:00:47;4.47;;;2.63;;
45420;SDS011;55462;47.042;8.292;2023-03-23T10:03:21;3.63;;;2.00;;
45420;SDS011;55462;47.042;8.292;2023-03-23T10:05:57;5.63;;;2.05;;
45420;SDS011;55462;47.042;8.292;2023-03-23T10:08:23;2.95;;;2.10;;
45420;SDS011;55462;47.042;8.292;2023-03-23T10:13:23;3.78;;;1.90;;
45420;SDS011;55462;47.042;8.292;2023-03-23T10:15:55;4.97;;;2.58;;
45420;SDS011;55462;47.042;8.292;2023-03-23T10:21:16;5.57;;;2.38;;
45420;SDS011;55462;47.042;8.292;2023-03-23T10:23:53;4.97;;;2.70;;
45420;SDS011;55462;47.042;8.292;2023-03-23T10:29:17;3.20;;;2.30;;
45420;SDS011;55462;47.042;8.292;2023-03-23T10:31:54;2.17;;;2.05;;
45420;SDS011;55462;47.042;8.292;2023-03-23T10:34:40;2.53;;;2.10;;
45420;SDS011;55462;47.042;8.292;2023-03-23T10:37:13;4.50;;;2.50;;
45420;SDS011;55462;47.042;8.292;2023-03-23T10:40:05;2.40;;;2.20;;
45420;SDS011;55462;47.042;8.292;2023-03-23T10:42:35;3.25;;;2.38;;
45420;SDS011;55462;47.042;8.292;2023-03-23T10:45:35;2.67;;;2.10;;
45420;SDS011;55462;47.042;8.292;2023-03-23T10:50:30;3.42;;;2.83;;
45420;SDS011;55462;47.042;8.292;2023-03-23T10:52:57;2.90;;;2.60;;
45420;SDS011;55462;47.042;8.292;2023-03-23T10:55:24;3.15;;;2.75;;
45420;SDS011;55462;47.042;8.292;2023-03-23T10:58:02;4.53;;;2.70;;
45420;SDS011;55462;47.042;8.292;2023-03-23T11:00:30;3.92;;;2.40;;
45420;SDS011;55462;47.042;8.292;2023-03-23T11:03:03;3.13;;;2.05;;
45420;SDS011;55462;47.042;8.292;2023-03-23T11:05:44;2.53;;;2.33;;
45420;SDS011;55462;47.042;8.292;2023-03-23T11:08:19;4.43;;;2.15;;
45420;SDS011;55462;47.042;8.292;2023-03-23T11:10:49;4.53;;;2.30;;
45420;SDS011;55462;47.042;8.292;2023-03-23T11:13:17;3.97;;;2.20;;
45420;SDS011;55462;47.042;8.292;2023-03-23T11:15:45;2.22;;;2.03;;
45420;SDS011;55462;47.042;8.292;2023-03-23T11:18:12;3.40;;;2.30;;
45420;SDS011;55462;47.042;8.292;2023-03-23T11:20:43;2.95;;;2.20;;
45420;SDS011;55462;47.042;8.292;2023-03-23T11:23:32;3.25;;;2.38;;
45420;SDS011;55462;47.042;8.292;2023-03-23T11:28:33;2.78;;;2.58;;
45420;SDS011;55462;47.042;8.292;2023-03-23T11:31:01;2.70;;;2.50;;
45420;SDS011;55462;47.042;8.292;2023-03-23T11:33:35;5.00;;;2.60;;
45420;SDS011;55462;47.042;8.292;2023-03-23T11:36:03;2.78;;;2.58;;
45420;SDS011;55462;47.042;8.292;2023-03-23T11:38:31;3.58;;;2.40;;
45420;SDS011;55462;47.042;8.292;2023-03-23T11:40:58;2.75;;;2.47;;
45420;SDS011;55462;47.042;8.292;2023-03-23T11:43:24;5.10;;;2.47;;
45420;SDS011;55462;47.042;8.292;2023-03-23T11:48:48;4.85;;;2.60;;
45420;SDS011;55462;47.042;8.292;2023-03-23T11:51:17;4.10;;;2.70;;
45420;SDS011;55462;47.042;8.292;2023-03-23T11:56:35;3.33;;;2.40;;
45420;SDS011;55462;47.042;8.292;2023-03-23T11:59:02;2.85;;;2.65;;
45420;SDS011;55462;47.042;8.292;2023-03-23T12:04:30;2.40;;;2.20;;
45420;SDS011;55462;47.042;8.292;2023-03-23T12:20:55;3.17;;;2.58;;
45420;SDS011;55462;47.042;8.292;2023-03-23T12:28:50;5.75;;;2.50;;
45420;SDS011;55462;47.042;8.292;2023-03-23T12:34:33;2.63;;;2.42;;
45420;SDS011;55462;47.042;8.292;2023-03-23T12:40:01;4.60;;;2.70;;
45420;SDS011;55462;47.042;8.292;2023-03-23T12:45:13;3.53;;;2.80;;
45420;SDS011;55462;47.042;8.292;2023-03-23T12:48:00;2.75;;;2.45;;
45420;SDS011;55462;47.042;8.292;2023-03-23T12:50:35;3.33;;;2.80;;
45420;SDS011;55462;47.042;8.292;2023-03-23T12:56:21;3.28;;;2.90;;
45420;SDS011;55462;47.042;8.292;2023-03-23T12:58:47;5.13;;;2.75;;
45420;SDS011;55462;47.042;8.292;2023-03-23T13:01:19;4.00;;;3.00;;
45420;SDS011;55462;47.042;8.292;2023-03-23T13:03:49;3.08;;;2.85;;
45420;SDS011;55462;47.042;8.292;2023-03-23T13:06:27;3.53;;;3.17;;
45420;SDS011;55462;47.042;8.292;2023-03-23T13:08:59;3.75;;;3.03;;
45420;SDS011;55462;47.042;8.292;2023-03-23T13:22:08;3.38;;;2.80;;
45420;SDS011;55462;47.042;8.292;2023-03-23T13:24:39;3.78;;;2.60;;
45420;SDS011;55462;47.042;8.292;2023-03-23T13:27:12;2.97;;;2.72;;
45420;SDS011;55462;47.042;8.292;2023-03-23T13:29:43;4.30;;;2.67;;
45420;SDS011;55462;47.042;8.292;2023-03-23T13:32:15;4.03;;;2.70;;
45420;SDS011;55462;47.042;8.292;2023-03-23T13:34:42;5.93;;;2.90;;
45420;SDS011;55462;47.042;8.292;2023-03-23T13:37:18;5.00;;;3.30;;
45420;SDS011;55462;47.042;8.292;2023-03-23T13:39:51;5.00;;;3.47;;
45420;SDS011;55462;47.042;8.292;2023-03-23T13:42:21;5.20;;;2.92;;
45420;SDS011;55462;47.042;8.292;2023-03-23T13:49:55;6.13;;;3.03;;
45420;SDS011;55462;47.042;8.292;2023-03-23T13:52:36;3.90;;;2.90;;
45420;SDS011;55462;47.042;8.292;2023-03-23T13:57:53;3.80;;;3.38;;
45420;SDS011;55462;47.042;8.292;2023-03-23T14:03:02;4.05;;;3.03;;
45420;SDS011;55462;47.042;8.292;2023-03-23T14:05:41;8.35;;;3.30;;
45420;SDS011;55462;47.042;8.292;2023-03-23T14:10:35;3.70;;;2.90;;
45420;SDS011;55462;47.042;8.292;2023-03-23T14:13:03;3.75;;;3.17;;
45420;SDS011;55462;47.042;8.292;2023-03-23T14:15:31;3.30;;;3.00;;
45420;SDS011;55462;47.042;8.292;2023-03-23T14:18:03;2.55;;;2.35;;
45420;SDS011;55462;47.042;8.292;2023-03-23T14:20:30;7.78;;;3.05;;
45420;SDS011;55462;47.042;8.292;2023-03-23T14:22:58;3.70;;;2.70;;
45420;SDS011;55462;47.042;8.292;2023-03-23T14:25:26;6.00;;;2.55;;
45420;SDS011;55462;47.042;8.292;2023-03-23T14:27:52;3.30;;;2.80;;
45420;SDS011;55462;47.042;8.292;2023-03-23T14:30:22;3.78;;;2.80;;
45420;SDS011;55462;47.042;8.292;2023-03-23T14:32:50;5.90;;;2.60;;
45420;SDS011;55462;47.042;8.292;2023-03-23T14:37:52;4.22;;;2.60;;
45420;SDS011;55462;47.042;8.292;2023-03-23T14:40:18;2.88;;;2.63;;
45420;SDS011;55462;47.042;8.292;2023-03-23T14:42:44;4.63;;;2.65;;
45420;SDS011;55462;47.042;8.292;2023-03-23T14:45:11;3.58;;;2.63;;
45420;SDS011;55462;47.042;8.292;2023-03-23T14:47:42;3.35;;;3.05;;
45420;SDS011;55462;47.042;8.292;2023-03-23T14:53:10;2.70;;;2.50;;
45420;SDS011;55462;47.042;8.292;2023-03-23T14:55:38;5.18;;;2.13;;
45420;SDS011;55462;47.042;8.292;2023-03-23T14:58:07;2.97;;;2.53;;
45420;SDS011;55462;47.042;8.292;2023-03-23T15:00:41;2.42;;;2.22;;
45420;SDS011;55462;47.042;8.292;2023-03-23T15:03:11;3.88;;;2.33;;
45420;SDS011;55462;47.042;8.292;2023-03-23T15:05:41;2.85;;;2.28;;
45420;SDS011;55462;47.042;8.292;2023-03-23T15:08:14;2.40;;;2.20;;
45420;SDS011;55462;47.042;8.292;2023-03-23T15:10:42;2.53;;;2.30;;
45420;SDS011;55462;47.042;8.292;2023-03-23T15:13:16;2.40;;;2.20;;
45420;SDS011;55462;47.042;8.292;2023-03-23T15:15:41;4.72;;;2.40;;
45420;SDS011;55462;47.042;8.292;2023-03-23T15:18:14;6.15;;;2.53;;
45420;SDS011;55462;47.042;8.292;2023-03-23T15:20:51;2.30;;;2.13;;
45420;SDS011;55462;47.042;8.292;2023-03-23T15:23:17;3.65;;;2.40;;
45420;SDS011;55462;47.042;8.292;2023-03-23T15:25:52;2.00;;;1.90;;
45420;SDS011;55462;47.042;8.292;2023-03-23T15:28:20;2.60;;;2.40;;
45420;SDS011;55462;47.042;8.292;2023-03-23T15:30:51;2.58;;;2.33;;
45420;SDS011;55462;47.042;8.292;2023-03-23T15:33:18;3.22;;;1.85;;
45420;SDS011;55462;47.042;8.292;2023-03-23T15:35:49;2.15;;;1.80;;
45420;SDS011;55462;47.042;8.292;2023-03-23T15:38:18;2.10;;;1.80;;
45420;SDS011;55462;47.042;8.292;2023-03-23T15:40:49;4.38;;;1.90;;
45420;SDS011;55462;47.042;8.292;2023-03-23T15:43:17;2.50;;;2.30;;
45420;SDS011;55462;47.042;8.292;2023-03-23T15:48:28;2.92;;;2.00;;
45420;SDS011;55462;47.042;8.292;2023-03-23T15:50:54;3.05;;;2.10;;
45420;SDS011;55462;47.042;8.292;2023-03-23T15:55:51;4.13;;;2.60;;
45420;SDS011;55462;47.042;8.292;2023-03-23T15:58:16;4.45;;;2.67;;
45420;SDS011;55462;47.042;8.292;2023-03-23T16:00:42;3.85;;;2.88;;
45420;SDS011;55462;47.042;8.292;2023-03-23T16:03:10;4.22;;;2.63;;
45420;SDS011;55462;47.042;8.292;2023-03-23T16:05:38;3.58;;;2.60;;
45420;SDS011;55462;47.042;8.292;2023-03-23T16:08:04;3.28;;;2.75;;
45420;SDS011;55462;47.042;8.292;2023-03-23T16:10:30;4.07;;;2.60;;
45420;SDS011;55462;47.042;8.292;2023-03-23T16:12:55;3.47;;;2.75;;
45420;SDS011;55462;47.042;8.292;2023-03-23T16:15:20;3.08;;;2.78;;
45420;SDS011;55462;47.042;8.292;2023-03-23T16:17:46;3.53;;;2.70;;
45420;SDS011;55462;47.042;8.292;2023-03-23T16:20:16;2.75;;;2.40;;
45420;SDS011;55462;47.042;8.292;2023-03-23T16:22:43;3.75;;;2.83;;
45420;SDS011;55462;47.042;8.292;2023-03-23T16:25:09;5.53;;;2.50;;
45420;SDS011;55462;47.042;8.292;2023-03-23T16:27:35;3.13;;;2.53;;
45420;SDS011;55462;47.042;8.292;2023-03-23T16:30:07;2.88;;;2.65;;
45420;SDS011;55462;47.042;8.292;2023-03-23T16:32:37;2.30;;;2.13;;
45420;SDS011;55462;47.042;8.292;2023-03-23T16:35:03;2.83;;;2.58;;
45420;SDS011;55462;47.042;8.292;2023-03-23T16:37:28;3.05;;;2.55;;
45420;SDS011;55462;47.042;8.292;2023-03-23T16:39:57;2.75;;;2.40;;
45420;SDS011;55462;47.042;8.292;2023-03-23T16:42:22;3.22;;;2.60;;
45420;SDS011;55462;47.042;8.292;2023-03-23T16:44:47;3.00;;;2.60;;
45420;SDS011;55462;47.042;8.292;2023-03-23T16:47:14;4.03;;;2.65;;
45420;SDS011;55462;47.042;8.292;2023-03-23T16:49:40;2.55;;;2.35;;
45420;SDS011;55462;47.042;8.292;2023-03-23T16:52:06;3.20;;;2.65;;
45420;SDS011;55462;47.042;8.292;2023-03-23T16:54:31;4.63;;;2.65;;
45420;SDS011;55462;47.042;8.292;2023-03-23T16:56:56;5.38;;;4.88;;